sensor_id;sensor_type;location;lat;lon;timestamp;temperature;humidity
24164;DHT22;12319;49.204;8.116;2023-06-14T00:01:16;19.30;42.10
24164;DHT22;12319;49.204;8.116;2023-06-14T00:03:42;19.30;42.20
24164;DHT22;12319;49.204;8.116;2023-06-14T00:06:07;19.40;42.30
24164;DHT22;12319;49.204;8.116;2023-06-14T00:08:33;19.30;42.70
24164;DHT22;12319;49.204;8.116;2023-06-14T00:10:58;19.30;42.20
24164;DHT22;12319;49.204;8.116;2023-06-14T00:13:25;19.30;42.20
24164;DHT22;12319;49.204;8.116;2023-06-14T00:15:51;19.30;42.40
24164;DHT22;12319;49.204;8.116;2023-06-14T00:18:20;19.30;42.40
24164;DHT22;12319;49.204;8.116;2023-06-14T00:20:49;19.30;42.30
24164;DHT22;12319;49.204;8.116;2023-06-14T00:23:15;19.30;43.10
24164;DHT22;12319;49.204;8.116;2023-06-14T00:25:40;19.30;42.30
24164;DHT22;12319;49.204;8.116;2023-06-14T00:28:06;19.30;42.40
24164;DHT22;12319;49.204;8.116;2023-06-14T00:30:32;19.30;42.40
24164;DHT22;12319;49.204;8.116;2023-06-14T00:32:57;19.30;42.50
24164;DHT22;12319;49.204;8.116;2023-06-14T00:35:23;19.30;42.50
24164;DHT22;12319;49.204;8.116;2023-06-14T00:37:49;19.30;42.50
24164;DHT22;12319;49.204;8.116;2023-06-14T00:40:14;19.30;42.60
24164;DHT22;12319;49.204;8.116;2023-06-14T00:42:40;19.30;42.50
24164;DHT22;12319;49.204;8.116;2023-06-14T00:45:06;19.30;42.60
24164;DHT22;12319;49.204;8.116;2023-06-14T00:47:32;19.30;42.60
24164;DHT22;12319;49.204;8.116;2023-06-14T00:49:58;19.30;42.50
24164;DHT22;12319;49.204;8.116;2023-06-14T00:52:25;19.30;42.60
24164;DHT22;12319;49.204;8.116;2023-06-14T00:54:51;19.30;42.70
24164;DHT22;12319;49.204;8.116;2023-06-14T00:57:16;19.30;42.60
24164;DHT22;12319;49.204;8.116;2023-06-14T00:59:44;19.30;42.70
24164;DHT22;12319;49.204;8.116;2023-06-14T01:02:11;19.30;42.80
24164;DHT22;12319;49.204;8.116;2023-06-14T01:04:37;19.20;42.60
24164;DHT22;12319;49.204;8.116;2023-06-14T01:12:38;19.20;42.60
24164;DHT22;12319;49.204;8.116;2023-06-14T01:15:04;19.30;42.70
24164;DHT22;12319;49.204;8.116;2023-06-14T01:17:32;19.30;42.70
24164;DHT22;12319;49.204;8.116;2023-06-14T01:20:01;19.20;42.70
24164;DHT22;12319;49.204;8.116;2023-06-14T01:22:26;19.30;42.70
24164;DHT22;12319;49.204;8.116;2023-06-14T01:24:53;19.30;42.90
24164;DHT22;12319;49.204;8.116;2023-06-14T01:27:22;19.20;42.60
24164;DHT22;12319;49.204;8.116;2023-06-14T01:29:50;19.20;42.90
24164;DHT22;12319;49.204;8.116;2023-06-14T01:32:17;19.30;43.00
24164;DHT22;12319;49.204;8.116;2023-06-14T01:34:43;19.20;42.90
24164;DHT22;12319;49.204;8.116;2023-06-14T01:37:11;19.30;43.10
24164;DHT22;12319;49.204;8.116;2023-06-14T01:39:37;19.20;42.80
24164;DHT22;12319;49.204;8.116;2023-06-14T01:42:03;19.20;42.90
24164;DHT22;12319;49.204;8.116;2023-06-14T01:44:30;19.20;42.90
24164;DHT22;12319;49.204;8.116;2023-06-14T01:46:56;19.20;43.00
24164;DHT22;12319;49.204;8.116;2023-06-14T01:49:22;19.20;43.00
24164;DHT22;12319;49.204;8.116;2023-06-14T01:51:48;19.20;42.90
24164;DHT22;12319;49.204;8.116;2023-06-14T01:54:13;19.20;42.90
24164;DHT22;12319;49.204;8.116;2023-06-14T01:56:39;19.20;43.00
24164;DHT22;12319;49.204;8.116;2023-06-14T01:59:05;19.20;43.00
24164;DHT22;12319;49.204;8.116;2023-06-14T02:01:30;19.20;43.00
24164;DHT22;12319;49.204;8.116;2023-06-14T02:03:56;19.20;43.10
24164;DHT22;12319;49.204;8.116;2023-06-14T02:06:22;19.10;43.10
24164;DHT22;12319;49.204;8.116;2023-06-14T02:08:47;19.10;43.20
24164;DHT22;12319;49.204;8.116;2023-06-14T02:11:13;19.10;43.20
24164;DHT22;12319;49.204;8.116;2023-06-14T02:13:38;19.00;43.20
24164;DHT22;12319;49.204;8.116;2023-06-14T02:16:04;19.00;43.30
24164;DHT22;12319;49.204;8.116;2023-06-14T02:18:29;19.00;43.40
24164;DHT22;12319;49.204;8.116;2023-06-14T02:20:55;19.00;43.50
24164;DHT22;12319;49.204;8.116;2023-06-14T02:23:21;18.90;43.40
24164;DHT22;12319;49.204;8.116;2023-06-14T02:25:46;18.90;43.40
24164;DHT22;12319;49.204;8.116;2023-06-14T02:28:12;18.90;43.50
24164;DHT22;12319;49.204;8.116;2023-06-14T02:30:37;18.90;43.60
24164;DHT22;12319;49.204;8.116;2023-06-14T02:33:04;18.80;43.60
24164;DHT22;12319;49.204;8.116;2023-06-14T02:35:30;18.80;43.70
24164;DHT22;12319;49.204;8.116;2023-06-14T02:37:55;18.70;43.80
24164;DHT22;12319;49.204;8.116;2023-06-14T02:40:21;18.70;43.90
24164;DHT22;12319;49.204;8.116;2023-06-14T02:42:47;18.60;43.80
24164;DHT22;12319;49.204;8.116;2023-06-14T02:45:12;18.70;43.90
24164;DHT22;12319;49.204;8.116;2023-06-14T02:47:38;18.60;44.00
24164;DHT22;12319;49.204;8.116;2023-06-14T02:50:03;18.60;44.10
24164;DHT22;12319;49.204;8.116;2023-06-14T02:52:29;18.60;44.10
24164;DHT22;12319;49.204;8.116;2023-06-14T02:54:55;18.50;44.10
24164;DHT22;12319;49.204;8.116;2023-06-14T02:57:22;18.50;44.20
24164;DHT22;12319;49.204;8.116;2023-06-14T02:59:47;18.50;44.30
24164;DHT22;12319;49.204;8.116;2023-06-14T03:02:13;18.50;44.40
24164;DHT22;12319;49.204;8.116;2023-06-14T03:04:38;18.40;44.40
24164;DHT22;12319;49.204;8.116;2023-06-14T03:07:05;18.40;44.50
24164;DHT22;12319;49.204;8.116;2023-06-14T03:09:37;18.40;44.50
24164;DHT22;12319;49.204;8.116;2023-06-14T03:12:04;18.40;44.50
24164;DHT22;12319;49.204;8.116;2023-06-14T03:14:32;18.40;44.60
24164;DHT22;12319;49.204;8.116;2023-06-14T03:16:58;18.40;44.70
24164;DHT22;12319;49.204;8.116;2023-06-14T03:19:24;18.30;44.60
24164;DHT22;12319;49.204;8.116;2023-06-14T03:21:51;18.40;44.70
24164;DHT22;12319;49.204;8.116;2023-06-14T03:24:17;18.40;44.70
24164;DHT22;12319;49.204;8.116;2023-06-14T03:26:43;18.40;44.80
24164;DHT22;12319;49.204;8.116;2023-06-14T03:29:08;18.30;44.80
24164;DHT22;12319;49.204;8.116;2023-06-14T03:31:55;18.40;44.90
24164;DHT22;12319;49.204;8.116;2023-06-14T03:34:21;18.30;44.90
24164;DHT22;12319;49.204;8.116;2023-06-14T03:36:47;18.30;44.90
24164;DHT22;12319;49.204;8.116;2023-06-14T03:39:12;18.30;44.90
24164;DHT22;12319;49.204;8.116;2023-06-14T03:41:38;18.30;45.00
24164;DHT22;12319;49.204;8.116;2023-06-14T03:44:03;18.30;45.10
24164;DHT22;12319;49.204;8.116;2023-06-14T03:46:29;18.30;45.10
24164;DHT22;12319;49.204;8.116;2023-06-14T03:48:54;18.50;45.30
24164;DHT22;12319;49.204;8.116;2023-06-14T03:51:21;18.30;45.00
24164;DHT22;12319;49.204;8.116;2023-06-14T03:53:46;18.40;45.20
24164;DHT22;12319;49.204;8.116;2023-06-14T03:56:12;18.40;45.20
24164;DHT22;12319;49.204;8.116;2023-06-14T03:58:38;18.40;45.10
24164;DHT22;12319;49.204;8.116;2023-06-14T04:01:03;18.50;45.30
24164;DHT22;12319;49.204;8.116;2023-06-14T04:03:29;18.50;45.30
24164;DHT22;12319;49.204;8.116;2023-06-14T04:05:55;18.50;45.40
24164;DHT22;12319;49.204;8.116;2023-06-14T04:08:22;18.50;45.40
24164;DHT22;12319;49.204;8.116;2023-06-14T04:10:47;18.50;45.40
24164;DHT22;12319;49.204;8.116;2023-06-14T04:13:13;18.60;45.50
24164;DHT22;12319;49.204;8.116;2023-06-14T04:15:39;18.60;45.50
24164;DHT22;12319;49.204;8.116;2023-06-14T04:18:07;18.50;45.60
24164;DHT22;12319;49.204;8.116;2023-06-14T04:20:33;18.50;45.50
24164;DHT22;12319;49.204;8.116;2023-06-14T04:23:14;18.50;45.60
24164;DHT22;12319;49.204;8.116;2023-06-14T04:25:40;18.50;45.70
24164;DHT22;12319;49.204;8.116;2023-06-14T04:28:10;18.60;45.90
24164;DHT22;12319;49.204;8.116;2023-06-14T04:30:36;18.60;45.90
24164;DHT22;12319;49.204;8.116;2023-06-14T04:33:04;18.60;45.90
24164;DHT22;12319;49.204;8.116;2023-06-14T04:35:31;18.70;46.00
24164;DHT22;12319;49.204;8.116;2023-06-14T04:37:58;18.60;45.90
24164;DHT22;12319;49.204;8.116;2023-06-14T04:40:23;18.70;46.00
24164;DHT22;12319;49.204;8.116;2023-06-14T04:42:49;18.80;46.00
24164;DHT22;12319;49.204;8.116;2023-06-14T04:45:16;18.80;46.00
24164;DHT22;12319;49.204;8.116;2023-06-14T04:47:42;18.80;46.00
24164;DHT22;12319;49.204;8.116;2023-06-14T04:50:09;18.90;46.00
24164;DHT22;12319;49.204;8.116;2023-06-14T04:52:36;18.90;46.00
24164;DHT22;12319;49.204;8.116;2023-06-14T04:55:02;19.00;46.20
24164;DHT22;12319;49.204;8.116;2023-06-14T04:57:28;19.00;46.30
24164;DHT22;12319;49.204;8.116;2023-06-14T04:59:54;19.10;46.30
24164;DHT22;12319;49.204;8.116;2023-06-14T05:02:23;19.10;46.30
24164;DHT22;12319;49.204;8.116;2023-06-14T05:04:50;19.20;46.30
24164;DHT22;12319;49.204;8.116;2023-06-14T05:07:16;19.20;46.40
24164;DHT22;12319;49.204;8.116;2023-06-14T05:09:42;19.30;47.10
24164;DHT22;12319;49.204;8.116;2023-06-14T05:12:07;19.40;46.60
24164;DHT22;12319;49.204;8.116;2023-06-14T05:14:34;19.40;46.20
24164;DHT22;12319;49.204;8.116;2023-06-14T05:17:00;19.40;46.40
24164;DHT22;12319;49.204;8.116;2023-06-14T05:19:25;19.50;46.30
24164;DHT22;12319;49.204;8.116;2023-06-14T05:21:51;19.60;46.40
24164;DHT22;12319;49.204;8.116;2023-06-14T05:24:18;19.70;46.40
24164;DHT22;12319;49.204;8.116;2023-06-14T05:26:43;19.80;46.30
24164;DHT22;12319;49.204;8.116;2023-06-14T05:29:09;19.90;46.20
24164;DHT22;12319;49.204;8.116;2023-06-14T05:31:34;19.90;46.30
24164;DHT22;12319;49.204;8.116;2023-06-14T05:34:00;20.10;46.40
24164;DHT22;12319;49.204;8.116;2023-06-14T05:36:26;20.30;46.20
24164;DHT22;12319;49.204;8.116;2023-06-14T05:38:53;20.40;46.10
24164;DHT22;12319;49.204;8.116;2023-06-14T05:41:27;20.60;46.00
24164;DHT22;12319;49.204;8.116;2023-06-14T05:43:55;20.80;46.00
24164;DHT22;12319;49.204;8.116;2023-06-14T05:46:21;21.20;46.10
24164;DHT22;12319;49.204;8.116;2023-06-14T05:48:50;21.90;46.30
24164;DHT22;12319;49.204;8.116;2023-06-14T05:51:15;23.90;46.10
24164;DHT22;12319;49.204;8.116;2023-06-14T05:53:47;26.10;43.10
24164;DHT22;12319;49.204;8.116;2023-06-14T05:56:13;28.10;42.00
24164;DHT22;12319;49.204;8.116;2023-06-14T05:58:39;30.00;39.70
24164;DHT22;12319;49.204;8.116;2023-06-14T06:01:04;31.60;37.80
24164;DHT22;12319;49.204;8.116;2023-06-14T06:03:30;32.80;37.00
24164;DHT22;12319;49.204;8.116;2023-06-14T06:05:56;33.70;35.50
24164;DHT22;12319;49.204;8.116;2023-06-14T06:08:21;34.70;34.60
24164;DHT22;12319;49.204;8.116;2023-06-14T06:10:47;35.40;34.00
24164;DHT22;12319;49.204;8.116;2023-06-14T06:13:12;36.00;33.30
24164;DHT22;12319;49.204;8.116;2023-06-14T06:15:38;36.70;32.70
24164;DHT22;12319;49.204;8.116;2023-06-14T06:18:04;37.30;31.80
24164;DHT22;12319;49.204;8.116;2023-06-14T06:20:29;37.70;31.80
24164;DHT22;12319;49.204;8.116;2023-06-14T06:22:58;38.00;30.50
24164;DHT22;12319;49.204;8.116;2023-06-14T06:25:24;38.30;30.50
24164;DHT22;12319;49.204;8.116;2023-06-14T06:27:51;38.60;30.50
24164;DHT22;12319;49.204;8.116;2023-06-14T06:30:17;39.10;30.00
24164;DHT22;12319;49.204;8.116;2023-06-14T06:32:43;39.40;30.00
24164;DHT22;12319;49.204;8.116;2023-06-14T06:35:09;39.70;29.40
24164;DHT22;12319;49.204;8.116;2023-06-14T06:37:36;39.90;29.20
24164;DHT22;12319;49.204;8.116;2023-06-14T06:40:02;40.10;28.90
24164;DHT22;12319;49.204;8.116;2023-06-14T06:42:31;40.30;28.60
24164;DHT22;12319;49.204;8.116;2023-06-14T06:44:57;40.70;28.80
24164;DHT22;12319;49.204;8.116;2023-06-14T06:47:22;41.10;28.50
24164;DHT22;12319;49.204;8.116;2023-06-14T06:49:48;41.50;27.80
24164;DHT22;12319;49.204;8.116;2023-06-14T06:52:13;41.70;27.90
24164;DHT22;12319;49.204;8.116;2023-06-14T06:54:39;42.00;27.80
24164;DHT22;12319;49.204;8.116;2023-06-14T06:57:05;42.00;27.30
24164;DHT22;12319;49.204;8.116;2023-06-14T06:59:32;42.10;27.40
24164;DHT22;12319;49.204;8.116;2023-06-14T07:01:58;42.10;27.10
24164;DHT22;12319;49.204;8.116;2023-06-14T07:04:23;42.40;27.00
24164;DHT22;12319;49.204;8.116;2023-06-14T07:06:49;42.60;26.90
24164;DHT22;12319;49.204;8.116;2023-06-14T07:09:15;42.60;26.60
24164;DHT22;12319;49.204;8.116;2023-06-14T07:11:43;42.60;26.50
24164;DHT22;12319;49.204;8.116;2023-06-14T07:14:09;42.70;26.80
24164;DHT22;12319;49.204;8.116;2023-06-14T07:16:34;42.90;26.80
24164;DHT22;12319;49.204;8.116;2023-06-14T07:19:01;43.10;26.40
24164;DHT22;12319;49.204;8.116;2023-06-14T07:21:27;43.20;26.10
24164;DHT22;12319;49.204;8.116;2023-06-14T07:23:53;43.40;26.20
24164;DHT22;12319;49.204;8.116;2023-06-14T07:26:19;43.50;25.90
24164;DHT22;12319;49.204;8.116;2023-06-14T07:28:46;43.60;26.00
24164;DHT22;12319;49.204;8.116;2023-06-14T07:31:12;43.60;25.70
24164;DHT22;12319;49.204;8.116;2023-06-14T07:33:38;43.60;26.10
24164;DHT22;12319;49.204;8.116;2023-06-14T07:36:04;43.80;26.10
24164;DHT22;12319;49.204;8.116;2023-06-14T07:38:29;44.20;25.90
24164;DHT22;12319;49.204;8.116;2023-06-14T07:40:55;44.60;25.70
24164;DHT22;12319;49.204;8.116;2023-06-14T07:43:21;45.00;25.40
24164;DHT22;12319;49.204;8.116;2023-06-14T07:45:46;45.20;25.40
24164;DHT22;12319;49.204;8.116;2023-06-14T07:48:12;45.50;25.30
24164;DHT22;12319;49.204;8.116;2023-06-14T07:50:37;45.60;24.90
24164;DHT22;12319;49.204;8.116;2023-06-14T07:53:03;45.70;24.70
24164;DHT22;12319;49.204;8.116;2023-06-14T07:55:28;45.50;24.60
24164;DHT22;12319;49.204;8.116;2023-06-14T07:57:54;45.30;24.70
24164;DHT22;12319;49.204;8.116;2023-06-14T08:00:20;45.20;24.60
24164;DHT22;12319;49.204;8.116;2023-06-14T08:02:46;45.10;24.60
24164;DHT22;12319;49.204;8.116;2023-06-14T08:05:12;45.20;24.90
24164;DHT22;12319;49.204;8.116;2023-06-14T08:07:38;45.10;24.60
24164;DHT22;12319;49.204;8.116;2023-06-14T08:10:05;44.90;24.70
24164;DHT22;12319;49.204;8.116;2023-06-14T08:12:32;44.60;24.20
24164;DHT22;12319;49.204;8.116;2023-06-14T08:14:57;44.30;24.30
24164;DHT22;12319;49.204;8.116;2023-06-14T08:17:23;43.90;24.40
24164;DHT22;12319;49.204;8.116;2023-06-14T08:19:48;43.60;24.50
24164;DHT22;12319;49.204;8.116;2023-06-14T08:22:14;43.20;24.30
24164;DHT22;12319;49.204;8.116;2023-06-14T08:24:40;42.70;24.10
24164;DHT22;12319;49.204;8.116;2023-06-14T08:27:06;42.30;24.40
24164;DHT22;12319;49.204;8.116;2023-06-14T08:29:32;41.40;24.40
24164;DHT22;12319;49.204;8.116;2023-06-14T08:31:58;40.10;24.70
24164;DHT22;12319;49.204;8.116;2023-06-14T08:34:24;38.50;25.30
24164;DHT22;12319;49.204;8.116;2023-06-14T08:36:52;36.90;26.10
24164;DHT22;12319;49.204;8.116;2023-06-14T08:39:18;35.40;26.90
24164;DHT22;12319;49.204;8.116;2023-06-14T08:41:47;34.10;27.60
24164;DHT22;12319;49.204;8.116;2023-06-14T08:44:17;33.00;28.30
24164;DHT22;12319;49.204;8.116;2023-06-14T08:46:43;32.10;28.50
24164;DHT22;12319;49.204;8.116;2023-06-14T08:49:12;31.50;29.40
24164;DHT22;12319;49.204;8.116;2023-06-14T08:51:39;30.90;29.60
24164;DHT22;12319;49.204;8.116;2023-06-14T08:54:06;30.50;29.90
24164;DHT22;12319;49.204;8.116;2023-06-14T08:56:32;30.10;30.60
24164;DHT22;12319;49.204;8.116;2023-06-14T08:58:59;29.90;31.30
24164;DHT22;12319;49.204;8.116;2023-06-14T09:01:36;29.70;31.40
24164;DHT22;12319;49.204;8.116;2023-06-14T09:04:02;29.50;31.60
24164;DHT22;12319;49.204;8.116;2023-06-14T09:06:31;29.50;31.80
24164;DHT22;12319;49.204;8.116;2023-06-14T09:08:57;29.40;32.20
24164;DHT22;12319;49.204;8.116;2023-06-14T09:11:22;29.30;32.40
24164;DHT22;12319;49.204;8.116;2023-06-14T09:13:49;29.20;32.70
24164;DHT22;12319;49.204;8.116;2023-06-14T09:16:15;29.20;32.80
24164;DHT22;12319;49.204;8.116;2023-06-14T09:18:43;29.20;32.80
24164;DHT22;12319;49.204;8.116;2023-06-14T09:21:10;29.20;32.90
24164;DHT22;12319;49.204;8.116;2023-06-14T09:23:37;29.20;33.00
24164;DHT22;12319;49.204;8.116;2023-06-14T09:26:21;29.20;33.70
24164;DHT22;12319;49.204;8.116;2023-06-14T09:28:49;29.30;33.20
24164;DHT22;12319;49.204;8.116;2023-06-14T09:31:17;29.30;32.70
24164;DHT22;12319;49.204;8.116;2023-06-14T09:33:44;29.20;32.60
24164;DHT22;12319;49.204;8.116;2023-06-14T09:36:15;29.10;32.70
24164;DHT22;12319;49.204;8.116;2023-06-14T09:38:43;29.00;32.80
24164;DHT22;12319;49.204;8.116;2023-06-14T09:41:16;29.00;32.50
24164;DHT22;12319;49.204;8.116;2023-06-14T09:43:42;28.90;32.90
24164;DHT22;12319;49.204;8.116;2023-06-14T09:46:08;28.80;33.00
24164;DHT22;12319;49.204;8.116;2023-06-14T09:48:34;28.80;33.40
24164;DHT22;12319;49.204;8.116;2023-06-14T09:51:01;28.90;33.10
24164;DHT22;12319;49.204;8.116;2023-06-14T09:53:30;28.90;33.30
24164;DHT22;12319;49.204;8.116;2023-06-14T09:55:57;28.80;33.10
24164;DHT22;12319;49.204;8.116;2023-06-14T09:58:26;28.90;33.10
24164;DHT22;12319;49.204;8.116;2023-06-14T10:00:54;28.80;33.00
24164;DHT22;12319;49.204;8.116;2023-06-14T10:03:28;28.90;33.00
24164;DHT22;12319;49.204;8.116;2023-06-14T10:05:55;28.90;33.10
24164;DHT22;12319;49.204;8.116;2023-06-14T10:08:27;28.90;32.90
24164;DHT22;12319;49.204;8.116;2023-06-14T10:10:57;28.90;32.90
24164;DHT22;12319;49.204;8.116;2023-06-14T10:13:26;29.00;32.70
24164;DHT22;12319;49.204;8.116;2023-06-14T10:16:01;29.10;32.70
24164;DHT22;12319;49.204;8.116;2023-06-14T10:18:51;29.10;32.60
24164;DHT22;12319;49.204;8.116;2023-06-14T10:24:31;29.10;32.70
24164;DHT22;12319;49.204;8.116;2023-06-14T10:26:58;29.20;32.70
24164;DHT22;12319;49.204;8.116;2023-06-14T10:29:25;29.20;32.50
24164;DHT22;12319;49.204;8.116;2023-06-14T10:31:56;29.30;32.50
24164;DHT22;12319;49.204;8.116;2023-06-14T10:34:23;29.10;32.30
24164;DHT22;12319;49.204;8.116;2023-06-14T10:37:01;29.00;32.60
24164;DHT22;12319;49.204;8.116;2023-06-14T10:39:30;28.90;32.70
24164;DHT22;12319;49.204;8.116;2023-06-14T10:41:57;28.90;32.50
24164;DHT22;12319;49.204;8.116;2023-06-14T10:46:49;28.80;32.30
24164;DHT22;12319;49.204;8.116;2023-06-14T10:49:18;28.70;32.60
24164;DHT22;12319;49.204;8.116;2023-06-14T10:51:46;28.80;33.10
24164;DHT22;12319;49.204;8.116;2023-06-14T10:54:15;28.70;32.90
24164;DHT22;12319;49.204;8.116;2023-06-14T10:56:48;28.60;33.00
24164;DHT22;12319;49.204;8.116;2023-06-14T10:59:15;28.60;33.30
24164;DHT22;12319;49.204;8.116;2023-06-14T11:01:57;28.60;33.20
24164;DHT22;12319;49.204;8.116;2023-06-14T11:04:46;28.60;33.20
24164;DHT22;12319;49.204;8.116;2023-06-14T11:12:41;28.80;33.00
24164;DHT22;12319;49.204;8.116;2023-06-14T11:15:11;28.80;32.80
24164;DHT22;12319;49.204;8.116;2023-06-14T11:17:36;28.80;32.70
24164;DHT22;12319;49.204;8.116;2023-06-14T11:20:12;28.70;32.50
24164;DHT22;12319;49.204;8.116;2023-06-14T11:22:44;28.70;32.70
24164;DHT22;12319;49.204;8.116;2023-06-14T11:25:13;28.60;32.60
24164;DHT22;12319;49.204;8.116;2023-06-14T11:27:38;28.50;32.40
24164;DHT22;12319;49.204;8.116;2023-06-14T11:30:07;28.50;32.40
24164;DHT22;12319;49.204;8.116;2023-06-14T11:32:33;28.50;32.40
24164;DHT22;12319;49.204;8.116;2023-06-14T11:34:58;28.60;32.10
24164;DHT22;12319;49.204;8.116;2023-06-14T11:37:26;28.60;31.80
24164;DHT22;12319;49.204;8.116;2023-06-14T11:39:56;28.50;31.90
24164;DHT22;12319;49.204;8.116;2023-06-14T11:42:23;28.60;32.50
24164;DHT22;12319;49.204;8.116;2023-06-14T11:44:49;28.60;32.50
24164;DHT22;12319;49.204;8.116;2023-06-14T11:47:15;28.80;32.40
24164;DHT22;12319;49.204;8.116;2023-06-14T11:49:41;28.80;32.10
24164;DHT22;12319;49.204;8.116;2023-06-14T11:52:07;28.80;32.10
24164;DHT22;12319;49.204;8.116;2023-06-14T11:54:33;28.90;32.20
24164;DHT22;12319;49.204;8.116;2023-06-14T11:56:59;28.90;32.10
24164;DHT22;12319;49.204;8.116;2023-06-14T11:59:25;29.00;32.10
24164;DHT22;12319;49.204;8.116;2023-06-14T12:01:52;29.00;32.00
24164;DHT22;12319;49.204;8.116;2023-06-14T12:04:29;29.10;31.90
24164;DHT22;12319;49.204;8.116;2023-06-14T12:06:55;29.10;31.70
24164;DHT22;12319;49.204;8.116;2023-06-14T12:09:21;29.10;31.70
24164;DHT22;12319;49.204;8.116;2023-06-14T12:11:49;29.20;31.50
24164;DHT22;12319;49.204;8.116;2023-06-14T12:14:15;29.30;31.60
24164;DHT22;12319;49.204;8.116;2023-06-14T12:16:42;29.40;31.40
24164;DHT22;12319;49.204;8.116;2023-06-14T12:19:12;29.40;31.00
24164;DHT22;12319;49.204;8.116;2023-06-14T12:21:39;29.60;31.10
24164;DHT22;12319;49.204;8.116;2023-06-14T12:24:08;29.70;30.70
24164;DHT22;12319;49.204;8.116;2023-06-14T12:26:38;29.90;30.70
24164;DHT22;12319;49.204;8.116;2023-06-14T12:29:05;30.00;30.70
24164;DHT22;12319;49.204;8.116;2023-06-14T12:31:31;30.10;30.90
24164;DHT22;12319;49.204;8.116;2023-06-14T12:33:57;30.30;30.60
24164;DHT22;12319;49.204;8.116;2023-06-14T12:36:23;30.40;30.80
24164;DHT22;12319;49.204;8.116;2023-06-14T12:38:48;30.60;30.90
24164;DHT22;12319;49.204;8.116;2023-06-14T12:41:15;30.70;30.70
24164;DHT22;12319;49.204;8.116;2023-06-14T12:43:41;30.80;30.60
24164;DHT22;12319;49.204;8.116;2023-06-14T12:46:07;30.90;30.50
24164;DHT22;12319;49.204;8.116;2023-06-14T12:48:32;31.00;30.60
24164;DHT22;12319;49.204;8.116;2023-06-14T12:50:59;31.20;30.50
24164;DHT22;12319;49.204;8.116;2023-06-14T12:53:25;31.40;30.30
24164;DHT22;12319;49.204;8.116;2023-06-14T12:55:50;31.50;30.10
24164;DHT22;12319;49.204;8.116;2023-06-14T12:58:16;31.70;30.20
24164;DHT22;12319;49.204;8.116;2023-06-14T13:00:45;31.90;30.20
24164;DHT22;12319;49.204;8.116;2023-06-14T13:03:10;32.10;30.00
24164;DHT22;12319;49.204;8.116;2023-06-14T13:05:36;32.20;30.00
24164;DHT22;12319;49.204;8.116;2023-06-14T13:08:03;32.30;30.00
24164;DHT22;12319;49.204;8.116;2023-06-14T13:10:28;32.20;30.00
24164;DHT22;12319;49.204;8.116;2023-06-14T13:12:54;32.10;30.00
24164;DHT22;12319;49.204;8.116;2023-06-14T13:15:19;32.20;30.00
24164;DHT22;12319;49.204;8.116;2023-06-14T13:17:45;32.20;29.80
24164;DHT22;12319;49.204;8.116;2023-06-14T13:20:14;32.20;29.80
24164;DHT22;12319;49.204;8.116;2023-06-14T13:22:40;32.30;29.80
24164;DHT22;12319;49.204;8.116;2023-06-14T13:25:06;32.40;29.60
24164;DHT22;12319;49.204;8.116;2023-06-14T13:27:32;32.50;29.50
24164;DHT22;12319;49.204;8.116;2023-06-14T13:29:57;32.70;29.50
24164;DHT22;12319;49.204;8.116;2023-06-14T13:32:23;32.80;29.50
24164;DHT22;12319;49.204;8.116;2023-06-14T13:34:49;33.00;29.60
24164;DHT22;12319;49.204;8.116;2023-06-14T13:37:15;33.20;29.50
24164;DHT22;12319;49.204;8.116;2023-06-14T13:39:41;33.30;29.30
24164;DHT22;12319;49.204;8.116;2023-06-14T13:42:07;33.30;29.50
24164;DHT22;12319;49.204;8.116;2023-06-14T13:44:32;33.40;29.40
24164;DHT22;12319;49.204;8.116;2023-06-14T13:46:58;33.50;29.30
24164;DHT22;12319;49.204;8.116;2023-06-14T13:49:23;33.70;29.10
24164;DHT22;12319;49.204;8.116;2023-06-14T13:51:49;33.70;28.80
24164;DHT22;12319;49.204;8.116;2023-06-14T13:54:15;33.70;28.70
24164;DHT22;12319;49.204;8.116;2023-06-14T13:56:41;33.60;28.80
24164;DHT22;12319;49.204;8.116;2023-06-14T13:59:06;33.70;28.80
24164;DHT22;12319;49.204;8.116;2023-06-14T14:01:32;33.80;28.70
24164;DHT22;12319;49.204;8.116;2023-06-14T14:03:58;33.90;28.60
24164;DHT22;12319;49.204;8.116;2023-06-14T14:06:26;34.10;28.50
24164;DHT22;12319;49.204;8.116;2023-06-14T14:08:51;33.80;28.60
24164;DHT22;12319;49.204;8.116;2023-06-14T14:11:18;33.70;28.50
24164;DHT22;12319;49.204;8.116;2023-06-14T14:13:44;33.30;28.70
24164;DHT22;12319;49.204;8.116;2023-06-14T14:16:10;33.30;29.00
24164;DHT22;12319;49.204;8.116;2023-06-14T14:18:36;33.30;29.00
24164;DHT22;12319;49.204;8.116;2023-06-14T14:21:02;33.40;28.90
24164;DHT22;12319;49.204;8.116;2023-06-14T14:23:28;33.40;28.90
24164;DHT22;12319;49.204;8.116;2023-06-14T14:25:54;33.40;28.80
24164;DHT22;12319;49.204;8.116;2023-06-14T14:28:19;33.40;29.00
24164;DHT22;12319;49.204;8.116;2023-06-14T14:30:46;33.40;28.90
24164;DHT22;12319;49.204;8.116;2023-06-14T14:33:13;33.30;28.90
24164;DHT22;12319;49.204;8.116;2023-06-14T14:35:42;33.40;28.90
24164;DHT22;12319;49.204;8.116;2023-06-14T14:38:08;33.10;28.90
24164;DHT22;12319;49.204;8.116;2023-06-14T14:40:34;32.70;29.10
24164;DHT22;12319;49.204;8.116;2023-06-14T14:43:00;32.10;29.30
24164;DHT22;12319;49.204;8.116;2023-06-14T14:45:25;31.70;29.50
24164;DHT22;12319;49.204;8.116;2023-06-14T14:47:51;31.70;29.70
24164;DHT22;12319;49.204;8.116;2023-06-14T14:50:16;31.70;29.80
24164;DHT22;12319;49.204;8.116;2023-06-14T14:52:42;31.90;29.70
24164;DHT22;12319;49.204;8.116;2023-06-14T14:55:08;32.10;29.70
24164;DHT22;12319;49.204;8.116;2023-06-14T14:57:33;32.30;29.70
24164;DHT22;12319;49.204;8.116;2023-06-14T14:59:59;32.50;29.50
24164;DHT22;12319;49.204;8.116;2023-06-14T15:02:25;32.50;29.50
24164;DHT22;12319;49.204;8.116;2023-06-14T15:04:50;32.50;29.50
24164;DHT22;12319;49.204;8.116;2023-06-14T15:07:17;32.50;29.40
24164;DHT22;12319;49.204;8.116;2023-06-14T15:09:42;32.40;29.40
24164;DHT22;12319;49.204;8.116;2023-06-14T15:12:08;32.30;29.50
24164;DHT22;12319;49.204;8.116;2023-06-14T15:14:36;32.20;29.70
24164;DHT22;12319;49.204;8.116;2023-06-14T15:17:01;32.00;29.60
24164;DHT22;12319;49.204;8.116;2023-06-14T15:19:28;31.70;29.70
24164;DHT22;12319;49.204;8.116;2023-06-14T15:21:53;31.30;30.00
24164;DHT22;12319;49.204;8.116;2023-06-14T15:24:19;30.90;30.00
24164;DHT22;12319;49.204;8.116;2023-06-14T15:26:45;30.60;30.30
24164;DHT22;12319;49.204;8.116;2023-06-14T15:29:11;30.30;30.50
24164;DHT22;12319;49.204;8.116;2023-06-14T15:31:36;30.00;30.60
24164;DHT22;12319;49.204;8.116;2023-06-14T15:34:02;29.80;30.90
24164;DHT22;12319;49.204;8.116;2023-06-14T15:36:28;29.50;30.80
24164;DHT22;12319;49.204;8.116;2023-06-14T15:38:53;29.40;31.00
24164;DHT22;12319;49.204;8.116;2023-06-14T15:41:19;29.30;31.10
24164;DHT22;12319;49.204;8.116;2023-06-14T15:43:44;29.20;31.20